SLH weather

Sola Airport
Sola, Torba, Vanuatu

Public forecast

Using degrees Celsius for public forecast. Weather courtesy of forecast.io.

METAR (pilot weather report)

Report is more than 2 hours old.

Retrieved 2019/06/18 06:00 UTC (2 hours ago):

NVSC 180600Z 12005KT 9999 SCT020 BKN300 28/24 Q1010

TAF (pilot weather forecast)

Retrieved 2019/06/18 06:32 UTC (2 hours ago):

TAF NVSC 180430Z 1806/1906 14005KT 9999 SCT020 BKN020 INTER 1806/1812 9000 -SHRA BKN018